AWG127C LROP-LRCL
Flight info
| Callsign | AWG127C |
|---|---|
| Flight time | 0h 38m |
| Altitude | 30000 |
| Route | BUKEL DCT EDETA |
| Aircraft | A20N/M-SDE2E3FGHIRWXY/LB1 |
Departure
| Time | 2026-04-22 16:33 |
|---|---|
| Airport | Bucharest Henri Coandă International Airport (LROP) |
Arrival
| Time | 2026-04-22 17:11 |
|---|---|
| Airport | Avram Iancu Cluj International Airport (LRCL) |
| Time | Latitude | Longitude | Altitude | Speed | Heading |
|---|---|---|---|---|---|
| 2026-04-22 16:17 | 44.56883 | 26.08810 | 324 ft | 0 kts | 174° |
| 2026-04-22 16:28 | 44.56882 | 26.08810 | 325 ft | 1 kts | 174° |
| 2026-04-22 16:28 | 44.56866 | 26.08812 | 324 ft | 4 kts | 174° |
| 2026-04-22 16:28 | 44.56838 | 26.08803 | 325 ft | 4 kts | 233° |
| 2026-04-22 16:28 | 44.56833 | 26.08771 | 325 ft | 6 kts | 260° |
| 2026-04-22 16:29 | 44.56824 | 26.08674 | 325 ft | 9 kts | 264° |
| 2026-04-22 16:29 | 44.56820 | 26.08594 | 325 ft | 8 kts | 278° |
| 2026-04-22 16:29 | 44.56841 | 26.08565 | 325 ft | 6 kts | 342° |
| 2026-04-22 16:29 | 44.56887 | 26.08555 | 325 ft | 7 kts | 353° |
| 2026-04-22 16:30 | 44.56943 | 26.08547 | 325 ft | 8 kts | 354° |
| 2026-04-22 16:30 | 44.57000 | 26.08539 | 324 ft | 9 kts | 354° |
| 2026-04-22 16:30 | 44.57069 | 26.08529 | 324 ft | 11 kts | 354° |
| 2026-04-22 16:30 | 44.57149 | 26.08517 | 325 ft | 11 kts | 354° |
| 2026-04-22 16:31 | 44.57228 | 26.08506 | 324 ft | 11 kts | 354° |
| 2026-04-22 16:31 | 44.57305 | 26.08495 | 324 ft | 11 kts | 354° |
| 2026-04-22 16:31 | 44.57380 | 26.08484 | 325 ft | 11 kts | 354° |
| 2026-04-22 16:31 | 44.57455 | 26.08473 | 326 ft | 11 kts | 354° |
| 2026-04-22 16:32 | 44.57528 | 26.08462 | 323 ft | 10 kts | 354° |
| 2026-04-22 16:32 | 44.57599 | 26.08452 | 323 ft | 10 kts | 354° |
| 2026-04-22 16:32 | 44.57659 | 26.08481 | 326 ft | 9 kts | 53° |
| 2026-04-22 16:32 | 44.57671 | 26.08558 | 327 ft | 8 kts | 83° |
| 2026-04-22 16:33 | 44.57689 | 26.08787 | 325 ft | 53 kts | 84° |
| 2026-04-22 16:33 | 44.57751 | 26.09614 | 325 ft | 117 kts | 84° |
| 2026-04-22 16:33 | 44.57853 | 26.10978 | 459 ft | 155 kts | 84° |
| 2026-04-22 16:33 | 44.57940 | 26.12504 | 1066 ft | 158 kts | 85° |
| 2026-04-22 16:34 | 44.58044 | 26.14078 | 1690 ft | 170 kts | 84° |
| 2026-04-22 16:34 | 44.58174 | 26.15856 | 1987 ft | 195 kts | 83° |
| 2026-04-22 16:34 | 44.58326 | 26.17852 | 2259 ft | 223 kts | 84° |
| 2026-04-22 16:34 | 44.58503 | 26.20140 | 2691 ft | 242 kts | 83° |
| 2026-04-22 16:35 | 44.58686 | 26.22522 | 3419 ft | 249 kts | 83° |
| 2026-04-22 16:35 | 44.58874 | 26.24978 | 4121 ft | 255 kts | 83° |
| 2026-04-22 16:35 | 44.59066 | 26.27494 | 4774 ft | 262 kts | 83° |
| 2026-04-22 16:35 | 44.59260 | 26.30055 | 5433 ft | 268 kts | 82° |
| 2026-04-22 16:36 | 44.59465 | 26.32683 | 6161 ft | 272 kts | 81° |
| 2026-04-22 16:36 | 44.59916 | 26.35266 | 6870 ft | 274 kts | 64° |
| 2026-04-22 16:36 | 44.60985 | 26.37477 | 7578 ft | 274 kts | 41° |
| 2026-04-22 16:36 | 44.62542 | 26.38927 | 8315 ft | 273 kts | 19° |
| 2026-04-22 16:37 | 44.64384 | 26.39450 | 9103 ft | 271 kts | 357° |
| 2026-04-22 16:37 | 44.66178 | 26.38718 | 9888 ft | 269 kts | 324° |
| 2026-04-22 16:37 | 44.67621 | 26.37042 | 10503 ft | 278 kts | 316° |
| 2026-04-22 16:37 | 44.69101 | 26.35121 | 10835 ft | 298 kts | 317° |
| 2026-04-22 16:38 | 44.70723 | 26.33137 | 11176 ft | 317 kts | 319° |
| 2026-04-22 16:38 | 44.72581 | 26.31451 | 11753 ft | 326 kts | 329° |
| 2026-04-22 16:38 | 44.74458 | 26.29625 | 12507 ft | 328 kts | 318° |
| 2026-04-22 16:38 | 44.76213 | 26.27528 | 13294 ft | 332 kts | 318° |
| 2026-04-22 16:39 | 44.77970 | 26.25447 | 14042 ft | 335 kts | 319° |
| 2026-04-22 16:39 | 44.79791 | 26.23347 | 14733 ft | 338 kts | 319° |
| 2026-04-22 16:39 | 44.81640 | 26.21270 | 15387 ft | 341 kts | 320° |
| 2026-04-22 16:39 | 44.83496 | 26.19221 | 16042 ft | 344 kts | 320° |
| 2026-04-22 16:40 | 44.85404 | 26.17137 | 16678 ft | 347 kts | 320° |
| 2026-04-22 16:40 | 44.87330 | 26.15045 | 17329 ft | 350 kts | 320° |
| 2026-04-22 16:40 | 44.91216 | 26.10840 | 18613 ft | 356 kts | 320° |
| 2026-04-22 16:41 | 44.93193 | 26.08701 | 19228 ft | 358 kts | 319° |
| 2026-04-22 16:41 | 44.95173 | 26.06560 | 19863 ft | 359 kts | 319° |
| 2026-04-22 16:41 | 44.97169 | 26.04402 | 20480 ft | 360 kts | 319° |
| 2026-04-22 16:41 | 44.99140 | 26.02270 | 21088 ft | 362 kts | 319° |
| 2026-04-22 16:42 | 45.01145 | 26.00099 | 21678 ft | 364 kts | 319° |
| 2026-04-22 16:42 | 45.03166 | 25.97908 | 22244 ft | 366 kts | 318° |
| 2026-04-22 16:42 | 45.05195 | 25.95707 | 22833 ft | 367 kts | 318° |
| 2026-04-22 16:42 | 45.07236 | 25.93489 | 23389 ft | 370 kts | 318° |
| 2026-04-22 16:43 | 45.09283 | 25.91263 | 23859 ft | 372 kts | 318° |
| 2026-04-22 16:43 | 45.11326 | 25.89038 | 24263 ft | 375 kts | 318° |
| 2026-04-22 16:43 | 45.13406 | 25.86769 | 24674 ft | 378 kts | 318° |
| 2026-04-22 16:43 | 45.15509 | 25.84472 | 25050 ft | 381 kts | 318° |
| 2026-04-22 16:44 | 45.17587 | 25.82198 | 25444 ft | 384 kts | 318° |
| 2026-04-22 16:44 | 45.19710 | 25.79874 | 25837 ft | 386 kts | 318° |
| 2026-04-22 16:44 | 45.21857 | 25.77520 | 26244 ft | 389 kts | 318° |
| 2026-04-22 16:44 | 45.24009 | 25.75159 | 26627 ft | 391 kts | 318° |
| 2026-04-22 16:45 | 45.26144 | 25.72813 | 27008 ft | 394 kts | 318° |
| 2026-04-22 16:45 | 45.28322 | 25.70416 | 27354 ft | 396 kts | 318° |
| 2026-04-22 16:45 | 45.30508 | 25.68010 | 27740 ft | 398 kts | 318° |
| 2026-04-22 16:45 | 45.32720 | 25.65573 | 28076 ft | 401 kts | 318° |
| 2026-04-22 16:46 | 45.34913 | 25.63154 | 28396 ft | 403 kts | 318° |
| 2026-04-22 16:46 | 45.37142 | 25.60692 | 28751 ft | 406 kts | 318° |
| 2026-04-22 16:46 | 45.39353 | 25.58248 | 29111 ft | 408 kts | 318° |
| 2026-04-22 16:46 | 45.41602 | 25.55761 | 29441 ft | 410 kts | 318° |
| 2026-04-22 16:47 | 45.43854 | 25.53267 | 29785 ft | 412 kts | 318° |
| 2026-04-22 16:47 | 45.46120 | 25.50754 | 30033 ft | 410 kts | 318° |
| 2026-04-22 16:47 | 45.48337 | 25.48302 | 30067 ft | 397 kts | 318° |
| 2026-04-22 16:48 | 45.52631 | 25.43546 | 30058 ft | 389 kts | 318° |
| 2026-04-22 16:48 | 45.56908 | 25.38787 | 30057 ft | 389 kts | 318° |
| 2026-04-22 16:49 | 45.61242 | 25.33941 | 30055 ft | 407 kts | 318° |
| 2026-04-22 16:49 | 45.65783 | 25.28849 | 30057 ft | 415 kts | 319° |
| 2026-04-22 16:50 | 45.70305 | 25.23778 | 30062 ft | 415 kts | 319° |
| 2026-04-22 16:50 | 45.74864 | 25.18658 | 30065 ft | 412 kts | 319° |
| 2026-04-22 16:51 | 45.79275 | 25.13702 | 29342 ft | 405 kts | 319° |
| 2026-04-22 16:51 | 45.81497 | 25.11195 | 28598 ft | 405 kts | 319° |
| 2026-04-22 16:51 | 45.83707 | 25.08700 | 28048 ft | 400 kts | 319° |
| 2026-04-22 16:51 | 45.85885 | 25.06239 | 27525 ft | 396 kts | 319° |
| 2026-04-22 16:52 | 45.88035 | 25.03806 | 26991 ft | 392 kts | 319° |
| 2026-04-22 16:52 | 45.90144 | 25.01419 | 26468 ft | 388 kts | 319° |
| 2026-04-22 16:52 | 45.92264 | 24.99017 | 25935 ft | 385 kts | 319° |
| 2026-04-22 16:52 | 45.94359 | 24.96640 | 25413 ft | 382 kts | 319° |
| 2026-04-22 16:53 | 45.96445 | 24.94270 | 24883 ft | 380 kts | 319° |
| 2026-04-22 16:53 | 45.98498 | 24.91936 | 24359 ft | 379 kts | 319° |
| 2026-04-22 16:53 | 46.00558 | 24.89590 | 23824 ft | 377 kts | 319° |
| 2026-04-22 16:53 | 46.02619 | 24.87241 | 23223 ft | 376 kts | 320° |
| 2026-04-22 16:54 | 46.04645 | 24.84929 | 22682 ft | 372 kts | 320° |
| 2026-04-22 16:54 | 46.06666 | 24.82621 | 22165 ft | 368 kts | 320° |
| 2026-04-22 16:54 | 46.08672 | 24.80330 | 21633 ft | 365 kts | 320° |
| 2026-04-22 16:54 | 46.10657 | 24.78058 | 21111 ft | 363 kts | 320° |
| 2026-04-22 16:55 | 46.12632 | 24.75797 | 20584 ft | 360 kts | 320° |
| 2026-04-22 16:55 | 46.14566 | 24.73580 | 20067 ft | 359 kts | 320° |
| 2026-04-22 16:55 | 46.15185 | 24.72870 | 19902 ft | 358 kts | 320° |
| 2026-04-22 16:56 | 46.17132 | 24.70635 | 19379 ft | 356 kts | 320° |
| 2026-04-22 16:56 | 46.19050 | 24.68432 | 18869 ft | 354 kts | 320° |
| 2026-04-22 16:56 | 46.20981 | 24.66213 | 18348 ft | 353 kts | 320° |
| 2026-04-22 16:56 | 46.22911 | 24.63992 | 17779 ft | 351 kts | 320° |
| 2026-04-22 16:57 | 46.24795 | 24.61823 | 17207 ft | 350 kts | 320° |
| 2026-04-22 16:57 | 46.26689 | 24.59641 | 16686 ft | 346 kts | 320° |
| 2026-04-22 16:57 | 46.28575 | 24.57467 | 16182 ft | 343 kts | 320° |
| 2026-04-22 16:57 | 46.30431 | 24.55327 | 15688 ft | 341 kts | 320° |
| 2026-04-22 16:58 | 46.31658 | 24.53911 | 15358 ft | 339 kts | 320° |
| 2026-04-22 16:58 | 46.34099 | 24.51091 | 14688 ft | 336 kts | 320° |
| 2026-04-22 16:58 | 46.35934 | 24.48969 | 14195 ft | 334 kts | 320° |
| 2026-04-22 16:58 | 46.37727 | 24.46894 | 13691 ft | 332 kts | 320° |
| 2026-04-22 16:59 | 46.39528 | 24.44807 | 13171 ft | 329 kts | 320° |
| 2026-04-22 16:59 | 46.41314 | 24.42736 | 12696 ft | 326 kts | 320° |
| 2026-04-22 16:59 | 46.43081 | 24.40685 | 12233 ft | 323 kts | 320° |
| 2026-04-22 16:59 | 46.44809 | 24.38677 | 11754 ft | 321 kts | 320° |
| 2026-04-22 17:00 | 46.46548 | 24.36655 | 11285 ft | 319 kts | 320° |
| 2026-04-22 17:00 | 46.49996 | 24.32640 | 10357 ft | 315 kts | 320° |
| 2026-04-22 17:00 | 46.51688 | 24.30668 | 10140 ft | 302 kts | 320° |
| 2026-04-22 17:01 | 46.53268 | 24.28831 | 10010 ft | 280 kts | 320° |
| 2026-04-22 17:01 | 46.54722 | 24.27149 | 9895 ft | 261 kts | 321° |
| 2026-04-22 17:01 | 46.56119 | 24.25537 | 9678 ft | 253 kts | 321° |
| 2026-04-22 17:01 | 46.57498 | 24.23942 | 9343 ft | 252 kts | 321° |
| 2026-04-22 17:02 | 46.58872 | 24.22345 | 9004 ft | 251 kts | 321° |
| 2026-04-22 17:02 | 46.60219 | 24.20773 | 8689 ft | 250 kts | 321° |
| 2026-04-22 17:02 | 46.61576 | 24.19186 | 8362 ft | 249 kts | 321° |
| 2026-04-22 17:02 | 46.62920 | 24.17610 | 8041 ft | 248 kts | 321° |
| 2026-04-22 17:03 | 46.64265 | 24.16032 | 7723 ft | 246 kts | 321° |
| 2026-04-22 17:03 | 46.65581 | 24.14486 | 7412 ft | 245 kts | 321° |
| 2026-04-22 17:03 | 46.66906 | 24.12927 | 7092 ft | 244 kts | 321° |
| 2026-04-22 17:03 | 46.68230 | 24.11370 | 6764 ft | 243 kts | 321° |
| 2026-04-22 17:04 | 46.69548 | 24.09818 | 6455 ft | 242 kts | 321° |
| 2026-04-22 17:04 | 46.70850 | 24.08284 | 6138 ft | 240 kts | 322° |
| 2026-04-22 17:04 | 46.72153 | 24.06748 | 5672 ft | 244 kts | 322° |
| 2026-04-22 17:04 | 46.73500 | 24.05157 | 5068 ft | 253 kts | 322° |
| 2026-04-22 17:05 | 46.74856 | 24.03550 | 4584 ft | 254 kts | 322° |
| 2026-04-22 17:05 | 46.76209 | 24.01947 | 4428 ft | 245 kts | 322° |
| 2026-04-22 17:05 | 46.77506 | 24.00413 | 4312 ft | 234 kts | 322° |
| 2026-04-22 17:05 | 46.78730 | 23.98970 | 4190 ft | 224 kts | 322° |
| 2026-04-22 17:06 | 46.79904 | 23.97588 | 4112 ft | 208 kts | 322° |
| 2026-04-22 17:06 | 46.81002 | 23.96301 | 3952 ft | 196 kts | 322° |
| 2026-04-22 17:06 | 46.82057 | 23.95068 | 3646 ft | 193 kts | 322° |
| 2026-04-22 17:06 | 46.83100 | 23.93849 | 3290 ft | 191 kts | 321° |
| 2026-04-22 17:07 | 46.83949 | 23.92411 | 3024 ft | 190 kts | 293° |
| 2026-04-22 17:07 | 46.84043 | 23.90492 | 2993 ft | 195 kts | 258° |
| 2026-04-22 17:07 | 46.83493 | 23.88735 | 2995 ft | 179 kts | 244° |
| 2026-04-22 17:07 | 46.82958 | 23.87218 | 2990 ft | 160 kts | 250° |
| 2026-04-22 17:08 | 46.82580 | 23.85761 | 3064 ft | 147 kts | 256° |
| 2026-04-22 17:08 | 46.82281 | 23.84359 | 3027 ft | 141 kts | 256° |
| 2026-04-22 17:08 | 46.81981 | 23.83009 | 2998 ft | 141 kts | 256° |
| 2026-04-22 17:08 | 46.81677 | 23.81640 | 2904 ft | 141 kts | 257° |
| 2026-04-22 17:09 | 46.81378 | 23.80284 | 2705 ft | 141 kts | 256° |
| 2026-04-22 17:09 | 46.81076 | 23.78921 | 2499 ft | 141 kts | 256° |
| 2026-04-22 17:09 | 46.80876 | 23.78023 | 2361 ft | 141 kts | 256° |
| 2026-04-22 17:09 | 46.80471 | 23.76201 | 2056 ft | 141 kts | 255° |
| 2026-04-22 17:10 | 46.80168 | 23.74842 | 1819 ft | 140 kts | 255° |
| 2026-04-22 17:10 | 46.79969 | 23.73945 | 1684 ft | 141 kts | 255° |
| 2026-04-22 17:10 | 46.79569 | 23.72147 | 1418 ft | 140 kts | 254° |
| 2026-04-22 17:10 | 46.79268 | 23.70799 | 1229 ft | 140 kts | 253° |
| 2026-04-22 17:11 | 46.78974 | 23.69446 | 1055 ft | 139 kts | 252° |
| 2026-04-22 17:11 | 46.78790 | 23.68619 | 1034 ft | 113 kts | 250° |
| 2026-04-22 17:11 | 46.78594 | 23.67746 | 1036 ft | 73 kts | 250° |
| 2026-04-22 17:11 | 46.78520 | 23.67432 | 1035 ft | 17 kts | 251° |
| 2026-04-22 17:12 | 46.78483 | 23.67269 | 1036 ft | 16 kts | 252° |
| 2026-04-22 17:12 | 46.78404 | 23.67203 | 1036 ft | 14 kts | 159° |
| 2026-04-22 17:12 | 46.78337 | 23.67342 | 1036 ft | 12 kts | 92° |
| 2026-04-22 17:12 | 46.78350 | 23.67452 | 1036 ft | 11 kts | 78° |
| 2026-04-22 17:13 | 46.78361 | 23.67522 | 1036 ft | 11 kts | 77° |
| 2026-04-22 17:13 | 46.78383 | 23.67657 | 1036 ft | 10 kts | 78° |
| 2026-04-22 17:13 | 46.78396 | 23.67765 | 1036 ft | 12 kts | 79° |
| 2026-04-22 17:13 | 46.78412 | 23.67886 | 1036 ft | 12 kts | 79° |
| 2026-04-22 17:14 | 46.78428 | 23.68005 | 1036 ft | 12 kts | 79° |
| 2026-04-22 17:14 | 46.78444 | 23.68124 | 1036 ft | 12 kts | 79° |
| 2026-04-22 17:14 | 46.78460 | 23.68239 | 1036 ft | 12 kts | 77° |
| 2026-04-22 17:14 | 46.78476 | 23.68353 | 1036 ft | 11 kts | 79° |
| 2026-04-22 17:15 | 46.78481 | 23.68391 | 1036 ft | 11 kts | 79° |
| 2026-04-22 17:15 | 46.78506 | 23.68577 | 1036 ft | 11 kts | 79° |
| 2026-04-22 17:15 | 46.78521 | 23.68687 | 1036 ft | 11 kts | 79° |
| 2026-04-22 17:15 | 46.78536 | 23.68796 | 1036 ft | 11 kts | 78° |
| 2026-04-22 17:16 | 46.78551 | 23.68903 | 1036 ft | 11 kts | 78° |
| 2026-04-22 17:16 | 46.78566 | 23.69011 | 1036 ft | 11 kts | 78° |
| 2026-04-22 17:16 | 46.78580 | 23.69117 | 1036 ft | 11 kts | 78° |
| 2026-04-22 17:16 | 46.78595 | 23.69222 | 1036 ft | 10 kts | 78° |
| 2026-04-22 17:17 | 46.78585 | 23.69317 | 1036 ft | 9 kts | 144° |
| 2026-04-22 17:17 | 46.78527 | 23.69338 | 1036 ft | 9 kts | 151° |
| 2026-04-22 17:17 | 46.78523 | 23.69407 | 1036 ft | 7 kts | 71° |
| 2026-04-22 17:17 | 46.78527 | 23.69424 | 1036 ft | 0 kts | 70° |